Time,TemperatureF,DewpointF,PressureIn,WindDirection,WindDirectionDegrees,WindSpeedMPH,WindSpeedGustMPH,Humidity,HourlyPrecipIn,Conditions,Clouds,dailyrainin,SoftwareType,DateUTC
2013-01-05 00:04:00,36.5,31.2,30.29,NW,313,0.0,0.0,81,0.00,,,0.00,Wunderground v.1.15,2013-01-05 05:04:00,
2013-01-05 00:14:00,36.6,31.9,30.29,NW,313,0.0,0.0,83,0.00,,,0.00,Wunderground v.1.15,2013-01-05 05:14:00,
2013-01-05 00:24:00,36.5,31.5,30.29,NW,313,0.0,0.0,82,0.00,,,0.00,Wunderground v.1.15,2013-01-05 05:24:00,
2013-01-05 00:34:00,36.3,31.3,30.29,NW,313,0.0,0.0,82,0.00,,,0.00,Wunderground v.1.15,2013-01-05 05:34:00,
2013-01-05 00:44:00,36.0,31.3,30.29,North,355,0.0,0.0,83,0.00,,,0.00,Wunderground v.1.15,2013-01-05 05:44:00,
2013-01-05 00:54:00,35.7,30.4,30.29,North,355,0.0,0.0,81,0.00,,,0.00,Wunderground v.1.15,2013-01-05 05:54:00,
2013-01-05 01:03:00,35.4,30.1,30.29,North,355,0.0,0.0,81,0.00,,,0.00,Wunderground v.1.15,2013-01-05 06:03:00,
2013-01-05 01:14:00,35.2,29.6,30.29,North,355,0.0,0.0,80,0.00,,,0.00,Wunderground v.1.15,2013-01-05 06:14:00,
2013-01-05 01:24:00,35.0,29.8,30.29,North,355,0.0,0.0,81,0.00,,,0.00,Wunderground v.1.15,2013-01-05 06:24:00,
2013-01-05 01:33:00,34.7,29.5,30.29,North,355,0.0,0.0,81,0.00,,,0.00,Wunderground v.1.15,2013-01-05 06:33:00,
2013-01-05 01:43:00,34.4,28.9,30.29,North,355,0.0,0.0,80,0.00,,,0.00,Wunderground v.1.15,2013-01-05 06:43:00,
2013-01-05 01:55:00,34.4,29.2,30.29,North,355,0.0,0.0,81,0.00,,,0.00,Wunderground v.1.15,2013-01-05 06:55:00,
2013-01-05 02:04:00,34.2,29.3,30.29,North,355,0.0,0.0,82,0.00,,,0.00,Wunderground v.1.15,2013-01-05 07:04:00,
2013-01-05 02:15:00,34.0,29.4,30.29,North,355,0.0,0.0,83,0.00,,,0.00,Wunderground v.1.15,2013-01-05 07:15:00,
2013-01-05 02:25:00,33.7,29.1,30.29,North,355,0.0,0.0,83,0.00,,,0.00,Wunderground v.1.15,2013-01-05 07:25:00,
2013-01-05 02:34:00,33.4,28.8,30.28,North,355,0.0,0.0,83,0.00,,,0.00,Wunderground v.1.15,2013-01-05 07:34:00,
2013-01-05 02:45:00,33.0,28.7,30.28,North,355,0.0,0.0,84,0.00,,,0.00,Wunderground v.1.15,2013-01-05 07:45:00,
2013-01-05 02:54:00,32.6,28.6,30.29,North,355,0.0,0.0,85,0.00,,,0.00,Wunderground v.1.15,2013-01-05 07:54:00,
2013-01-05 03:04:00,32.3,28.3,30.30,North,355,0.0,0.0,85,0.00,,,0.00,Wunderground v.1.15,2013-01-05 08:04:00,
2013-01-05 03:14:00,32.0,28.0,30.30,North,355,0.0,0.0,85,0.00,,,0.00,Wunderground v.1.15,2013-01-05 08:14:00,
2013-01-05 03:24:00,31.8,28.1,30.30,North,355,0.0,0.0,86,0.00,,,0.00,Wunderground v.1.15,2013-01-05 08:24:00,
2013-01-05 03:34:00,31.5,27.8,30.29,North,355,0.0,0.0,86,0.00,,,0.00,Wunderground v.1.15,2013-01-05 08:34:00,
2013-01-05 03:44:00,31.2,27.8,30.29,North,355,0.0,0.0,87,0.00,,,0.00,Wunderground v.1.15,2013-01-05 08:44:00,
2013-01-05 03:54:00,30.9,27.5,30.29,North,355,0.0,0.0,87,0.00,,,0.00,Wunderground v.1.15,2013-01-05 08:54:00,
2013-01-05 04:04:00,30.7,27.6,30.29,North,355,0.0,0.0,88,0.00,,,0.00,Wunderground v.1.15,2013-01-05 09:04:00,
2013-01-05 04:14:00,30.6,27.7,30.29,North,355,0.0,0.0,89,0.00,,,0.00,Wunderground v.1.15,2013-01-05 09:14:00,
2013-01-05 04:24:00,30.6,27.7,30.29,North,355,0.0,0.0,89,0.00,,,0.00,Wunderground v.1.15,2013-01-05 09:24:00,
2013-01-05 04:34:00,30.3,27.2,30.29,North,355,0.0,0.0,88,0.00,,,0.00,Wunderground v.1.15,2013-01-05 09:34:00,
2013-01-05 04:44:00,30.1,27.3,30.29,North,355,0.0,0.0,89,0.00,,,0.00,Wunderground v.1.15,2013-01-05 09:44:00,
2013-01-05 04:54:00,29.9,27.1,30.30,North,355,0.0,0.0,89,0.00,,,0.00,Wunderground v.1.15,2013-01-05 09:54:00,
2013-01-05 05:04:00,29.8,27.2,30.30,North,355,0.0,0.0,90,0.00,,,0.00,Wunderground v.1.15,2013-01-05 10:04:00,
2013-01-05 05:14:00,29.7,27.1,30.30,North,355,0.0,0.0,90,0.00,,,0.00,Wunderground v.1.15,2013-01-05 10:14:00,
2013-01-05 05:24:00,29.6,27.0,30.30,North,355,0.0,0.0,90,0.00,,,0.00,Wunderground v.1.15,2013-01-05 10:24:00,
2013-01-05 05:33:00,29.6,27.0,30.29,North,355,0.0,0.0,90,0.00,,,0.00,Wunderground v.1.15,2013-01-05 10:33:00,
2013-01-05 05:43:00,29.6,27.0,30.29,North,355,0.0,0.0,90,0.00,,,0.00,Wunderground v.1.15,2013-01-05 10:43:00,
2013-01-05 05:55:00,29.4,26.8,30.29,North,355,0.0,0.0,90,0.00,,,0.00,Wunderground v.1.15,2013-01-05 10:55:00,
2013-01-05 06:04:00,29.3,27.0,30.30,North,355,0.0,0.0,91,0.00,,,0.00,Wunderground v.1.15,2013-01-05 11:04:00,
2013-01-05 06:14:00,29.1,26.8,30.30,North,355,0.0,0.0,91,0.00,,,0.00,Wunderground v.1.15,2013-01-05 11:14:00,
2013-01-05 06:24:00,29.0,26.7,30.31,North,355,0.0,0.0,91,0.00,,,0.00,Wunderground v.1.15,2013-01-05 11:24:00,
2013-01-05 06:34:00,28.9,26.6,30.31,North,355,0.0,0.0,91,0.00,,,0.00,Wunderground v.1.15,2013-01-05 11:34:00,
2013-01-05 06:44:00,28.8,26.5,30.31,North,355,0.0,0.0,91,0.00,,,0.00,Wunderground v.1.15,2013-01-05 11:44:00,
2013-01-05 06:55:00,28.7,26.4,30.32,North,355,0.0,0.0,91,0.00,,,0.00,Wunderground v.1.15,2013-01-05 11:55:00,
2013-01-05 07:04:00,28.6,26.3,30.32,North,355,0.0,0.0,91,0.00,,,0.00,Wunderground v.1.15,2013-01-05 12:04:00,
2013-01-05 07:14:00,28.5,26.2,30.32,North,355,0.0,0.0,91,0.00,,,0.00,Wunderground v.1.15,2013-01-05 12:14:00,
2013-01-05 07:24:00,28.5,26.2,30.33,North,355,0.0,0.0,91,0.00,,,0.00,Wunderground v.1.15,2013-01-05 12:24:00,
2013-01-05 07:34:00,28.3,26.0,30.33,North,355,0.0,0.0,91,0.00,,,0.00,Wunderground v.1.15,2013-01-05 12:34:00,
2013-01-05 07:44:00,28.3,26.3,30.33,North,355,0.0,0.0,92,0.00,,,0.00,Wunderground v.1.15,2013-01-05 12:44:00,
2013-01-05 07:54:00,28.4,26.4,30.34,North,355,0.0,0.0,92,0.00,,,0.00,Wunderground v.1.15,2013-01-05 12:54:00,
2013-01-05 08:04:00,28.7,26.7,30.34,North,355,0.0,0.0,92,0.00,,,0.00,Wunderground v.1.15,2013-01-05 13:04:00,
2013-01-05 08:14:00,29.3,27.5,30.34,North,355,0.0,0.0,93,0.00,,,0.00,Wunderground v.1.15,2013-01-05 13:14:00,
2013-01-05 08:24:00,30.2,28.4,30.35,North,355,0.0,0.0,93,0.00,,,0.00,Wunderground v.1.15,2013-01-05 13:24:00,
2013-01-05 08:34:00,31.4,29.6,30.35,North,355,0.0,0.0,93,0.00,,,0.00,Wunderground v.1.15,2013-01-05 13:34:00,
2013-01-05 08:44:00,32.1,29.8,30.35,North,355,0.0,0.0,91,0.00,,,0.00,Wunderground v.1.15,2013-01-05 13:44:00,
2013-01-05 08:54:00,32.8,29.9,30.35,North,355,0.0,0.0,89,0.00,,,0.00,Wunderground v.1.15,2013-01-05 13:54:00,
2013-01-05 09:04:00,34.1,30.6,30.35,North,355,0.0,0.0,87,0.00,,,0.00,Wunderground v.1.15,2013-01-05 14:04:00,
2013-01-05 09:13:00,35.6,30.9,30.35,North,350,1.0,2.0,83,0.00,,,0.00,Wunderground v.1.15,2013-01-05 14:13:00,
2013-01-05 09:23:00,37.5,31.6,30.35,NNW,338,1.0,1.0,79,0.00,,,0.00,Wunderground v.1.15,2013-01-05 14:23:00,
2013-01-05 09:33:00,38.8,31.9,30.35,NNW,338,0.0,0.0,76,0.00,,,0.00,Wunderground v.1.15,2013-01-05 14:33:00,
2013-01-05 09:43:00,40.4,32.4,30.35,NNW,339,0.0,0.0,73,0.00,,,0.00,Wunderground v.1.15,2013-01-05 14:43:00,
2013-01-05 09:55:00,41.6,32.5,30.36,West,280,0.0,2.0,70,0.00,,,0.00,Wunderground v.1.15,2013-01-05 14:55:00,
2013-01-05 10:05:00,42.5,31.6,30.36,ESE,108,1.0,1.0,65,0.00,,,0.00,Wunderground v.1.15,2013-01-05 15:05:00,
2013-01-05 10:14:00,43.4,31.2,30.36,East,99,1.0,1.0,62,0.00,,,0.00,Wunderground v.1.15,2013-01-05 15:14:00,
2013-01-05 10:24:00,44.0,31.8,30.36,NE,46,0.0,0.0,62,0.00,,,0.00,Wunderground v.1.15,2013-01-05 15:24:00,
2013-01-05 10:34:00,44.4,31.4,30.36,East,89,1.0,1.0,60,0.00,,,0.00,Wunderground v.1.15,2013-01-05 15:34:00,
2013-01-05 10:44:00,44.5,31.9,30.36,East,85,0.0,2.0,61,0.00,,,0.00,Wunderground v.1.15,2013-01-05 15:44:00,
2013-01-05 10:54:00,45.6,32.1,30.36,East,91,1.0,2.0,59,0.00,,,0.00,Wunderground v.1.15,2013-01-05 15:54:00,
2013-01-05 11:04:00,46.4,31.5,30.35,East,90,1.0,1.0,56,0.00,,,0.00,Wunderground v.1.15,2013-01-05 16:04:00,
2013-01-05 11:14:00,46.9,30.6,30.35,NE,43,1.0,1.0,53,0.00,,,0.00,Wunderground v.1.15,2013-01-05 16:14:00,
2013-01-05 11:24:00,47.6,33.1,30.35,NE,55,0.0,0.0,57,0.00,,,0.00,Wunderground v.1.15,2013-01-05 16:24:00,
2013-01-05 11:34:00,48.5,31.2,30.33,SE,128,2.0,4.0,51,0.00,,,0.00,Wunderground v.1.15,2013-01-05 16:34:00,
2013-01-05 11:44:00,48.6,30.8,30.33,SSE,148,2.0,2.0,50,0.00,,,0.00,Wunderground v.1.15,2013-01-05 16:44:00,
2013-01-05 11:54:00,48.7,30.4,30.33,ESE,103,1.0,1.0,49,0.00,,,0.00,Wunderground v.1.15,2013-01-05 16:54:00,
2013-01-05 12:04:00,49.2,30.3,30.32,SE,126,1.0,1.0,48,0.00,,,0.00,Wunderground v.1.15,2013-01-05 17:04:00,
2013-01-05 12:14:00,49.3,30.9,30.32,East,93,1.0,1.0,49,0.00,,,0.00,Wunderground v.1.15,2013-01-05 17:14:00,
2013-01-05 12:24:00,49.5,31.1,30.31,SSE,159,1.0,1.0,49,0.00,,,0.00,Wunderground v.1.15,2013-01-05 17:24:00,
2013-01-05 12:34:00,50.1,30.6,30.30,ESE,116,0.0,0.0,47,0.00,,,0.00,Wunderground v.1.15,2013-01-05 17:34:00,
2013-01-05 12:44:00,50.1,31.2,30.30,SE,143,0.0,2.0,48,0.00,,,0.00,Wunderground v.1.15,2013-01-05 17:44:00,
2013-01-05 12:54:00,50.3,31.3,30.30,ENE,76,2.0,4.0,48,0.00,,,0.00,Wunderground v.1.15,2013-01-05 17:54:00,
2013-01-05 13:04:00,50.2,31.8,30.28,SE,143,1.0,1.0,49,0.00,,,0.00,Wunderground v.1.15,2013-01-05 18:04:00,
2013-01-05 13:14:00,50.2,31.8,30.28,SE,145,1.0,1.0,49,0.00,,,0.00,Wunderground v.1.15,2013-01-05 18:14:00,
2013-01-05 13:23:00,50.6,32.1,30.27,SE,139,0.0,0.0,49,0.00,,,0.00,Wunderground v.1.15,2013-01-05 18:23:00,
2013-01-05 13:33:00,50.9,31.4,30.27,SSE,155,1.0,1.0,47,0.00,,,0.00,Wunderground v.1.15,2013-01-05 18:33:00,
2013-01-05 13:43:00,51.3,31.7,30.27,WSW,248,1.0,1.0,47,0.00,,,0.00,Wunderground v.1.15,2013-01-05 18:43:00,
2013-01-05 13:55:00,51.6,32.0,30.26,South,191,0.0,1.0,47,0.00,,,0.00,Wunderground v.1.15,2013-01-05 18:55:00,
2013-01-05 14:04:00,51.3,31.7,30.25,SSE,151,1.0,1.0,47,0.00,,,0.00,Wunderground v.1.15,2013-01-05 19:04:00,
2013-01-05 14:15:00,51.9,31.7,30.25,ESE,114,1.0,1.0,46,0.00,,,0.00,Wunderground v.1.15,2013-01-05 19:15:00,
2013-01-05 14:24:00,52.5,32.3,30.25,SSW,202,1.0,1.0,46,0.00,,,0.00,Wunderground v.1.15,2013-01-05 19:24:00,
2013-01-05 14:34:00,52.2,32.0,30.25,SSW,192,1.0,1.0,46,0.00,,,0.00,Wunderground v.1.15,2013-01-05 19:34:00,
2013-01-05 14:44:00,52.5,32.3,30.25,South,190,0.0,0.0,46,0.00,,,0.00,Wunderground v.1.15,2013-01-05 19:44:00,
2013-01-05 14:54:00,52.8,32.6,30.25,South,178,0.0,1.0,46,0.00,,,0.00,Wunderground v.1.15,2013-01-05 19:54:00,
2013-01-05 15:04:00,53.0,32.2,30.25,South,178,1.0,1.0,45,0.00,,,0.00,Wunderground v.1.15,2013-01-05 20:04:00,
2013-01-05 15:14:00,53.0,32.2,30.25,South,178,0.0,0.0,45,0.00,,,0.00,Wunderground v.1.15,2013-01-05 20:14:00,
2013-01-05 15:24:00,53.1,32.3,30.25,South,175,0.0,0.0,45,0.00,,,0.00,Wunderground v.1.15,2013-01-05 20:24:00,
2013-01-05 15:34:00,53.0,32.2,30.25,ESE,103,1.0,1.0,45,0.00,,,0.00,Wunderground v.1.15,2013-01-05 20:34:00,
2013-01-05 15:44:00,52.9,32.1,30.25,ESE,107,0.0,0.0,45,0.00,,,0.00,Wunderground v.1.15,2013-01-05 20:44:00,
2013-01-05 15:54:00,53.0,32.2,30.24,ESE,121,0.0,0.0,45,0.00,,,0.00,Wunderground v.1.15,2013-01-05 20:54:00,
2013-01-05 16:04:00,53.0,31.6,30.24,ESE,121,0.0,0.0,44,0.00,,,0.00,Wunderground v.1.15,2013-01-05 21:04:00,
2013-01-05 16:14:00,52.9,32.7,30.24,ESE,121,0.0,0.0,46,0.00,,,0.00,Wunderground v.1.15,2013-01-05 21:14:00,
2013-01-05 16:24:00,52.7,33.5,30.24,SE,126,0.0,0.0,48,0.00,,,0.00,Wunderground v.1.15,2013-01-05 21:24:00,
2013-01-05 16:34:00,52.6,35.0,30.24,SE,126,0.0,0.0,51,0.00,,,0.00,Wunderground v.1.15,2013-01-05 21:34:00,
2013-01-05 16:44:00,52.3,34.2,30.24,SE,126,0.0,0.0,50,0.00,,,0.00,Wunderground v.1.15,2013-01-05 21:44:00,
2013-01-05 16:54:00,51.7,35.1,30.23,SE,126,0.0,0.0,53,0.00,,,0.00,Wunderground v.1.15,2013-01-05 21:54:00,
2013-01-05 17:04:00,51.1,35.5,30.23,SE,125,0.0,0.0,55,0.00,,,0.00,Wunderground v.1.15,2013-01-05 22:04:00,
2013-01-05 17:14:00,50.7,35.6,30.23,SE,125,0.0,0.0,56,0.00,,,0.00,Wunderground v.1.15,2013-01-05 22:14:00,
2013-01-05 17:24:00,50.3,36.1,30.24,SE,125,0.0,0.0,58,0.00,,,0.00,Wunderground v.1.15,2013-01-05 22:24:00,
2013-01-05 17:33:00,49.9,37.4,30.25,SE,126,0.0,0.0,62,0.00,,,0.00,Wunderground v.1.15,2013-01-05 22:33:00,
2013-01-05 17:45:00,49.5,36.2,30.25,SE,126,0.0,0.0,60,0.00,,,0.00,Wunderground v.1.15,2013-01-05 22:45:00,
2013-01-05 17:55:00,49.2,35.9,30.25,SE,126,0.0,0.0,60,0.00,,,0.00,Wunderground v.1.15,2013-01-05 22:55:00,
2013-01-05 18:05:00,49.0,36.5,30.25,SE,126,0.0,0.0,62,0.00,,,0.00,Wunderground v.1.15,2013-01-05 23:05:00,
2013-01-05 18:15:00,48.7,37.1,30.25,SE,126,0.0,0.0,64,0.00,,,0.00,Wunderground v.1.15,2013-01-05 23:15:00,
2013-01-05 18:25:00,48.5,37.3,30.24,SE,126,0.0,0.0,65,0.00,,,0.00,Wunderground v.1.15,2013-01-05 23:25:00,
2013-01-05 18:34:00,48.3,37.1,30.25,SE,126,0.0,0.0,65,0.00,,,0.00,Wunderground v.1.15,2013-01-05 23:34:00,
2013-01-05 18:44:00,48.3,37.1,30.25,SE,126,0.0,0.0,65,0.00,,,0.00,Wunderground v.1.15,2013-01-05 23:44:00,
2013-01-05 18:54:00,48.2,37.8,30.25,SE,126,0.0,0.0,67,0.00,,,0.00,Wunderground v.1.15,2013-01-05 23:54:00,
2013-01-05 19:04:00,48.0,38.7,30.25,SE,126,0.0,0.0,70,0.00,,,0.00,Wunderground v.1.15,2013-01-06 00:04:00,
2013-01-05 19:14:00,47.9,38.2,30.25,SE,126,0.0,0.0,69,0.00,,,0.00,Wunderground v.1.15,2013-01-06 00:14:00,
2013-01-05 19:24:00,47.8,37.7,30.26,SE,126,0.0,0.0,68,0.00,,,0.00,Wunderground v.1.15,2013-01-06 00:24:00,
2013-01-05 19:34:00,47.7,37.7,30.27,SE,126,0.0,0.0,68,0.00,,,0.00,Wunderground v.1.15,2013-01-06 00:34:00,
2013-01-05 19:44:00,47.6,37.9,30.27,SE,126,0.0,0.0,69,0.00,,,0.00,Wunderground v.1.15,2013-01-06 00:44:00,
2013-01-05 19:54:00,47.5,37.8,30.27,SE,126,0.0,0.0,69,0.00,,,0.00,Wunderground v.1.15,2013-01-06 00:54:00,
2013-01-05 20:04:00,47.4,38.5,30.26,SE,126,0.0,0.0,71,0.00,,,0.00,Wunderground v.1.15,2013-01-06 01:04:00,
2013-01-05 20:14:00,47.3,38.4,30.26,SE,126,0.0,0.0,71,0.00,,,0.00,Wunderground v.1.15,2013-01-06 01:14:00,
2013-01-05 20:24:00,47.2,38.6,30.26,SE,126,0.0,0.0,72,0.00,,,0.00,Wunderground v.1.15,2013-01-06 01:24:00,
2013-01-05 20:34:00,47.2,37.9,30.27,SE,126,0.0,0.0,70,0.00,,,0.00,Wunderground v.1.15,2013-01-06 01:34:00,
2013-01-05 20:44:00,47.2,37.9,30.27,SE,126,0.0,0.0,70,0.00,,,0.00,Wunderground v.1.15,2013-01-06 01:44:00,
2013-01-05 20:54:00,47.3,39.1,30.27,SE,126,0.0,0.0,73,0.00,,,0.00,Wunderground v.1.15,2013-01-06 01:54:00,
2013-01-05 21:04:00,47.2,39.3,30.27,SE,126,0.0,0.0,74,0.00,,,0.00,Wunderground v.1.15,2013-01-06 02:04:00,
2013-01-05 21:13:00,47.2,39.7,30.27,SE,126,0.0,0.0,75,0.00,,,0.00,Wunderground v.1.15,2013-01-06 02:13:00,
2013-01-05 21:23:00,47.2,40.4,30.27,SE,126,0.0,0.0,77,0.00,,,0.00,Wunderground v.1.15,2013-01-06 02:23:00,
2013-01-05 21:34:00,47.1,40.3,30.27,SE,126,0.0,0.0,77,0.00,,,0.00,Wunderground v.1.15,2013-01-06 02:34:00,
2013-01-05 21:45:00,46.9,40.4,30.27,SE,126,0.0,0.0,78,0.00,,,0.00,Wunderground v.1.15,2013-01-06 02:45:00,
2013-01-05 21:55:00,46.8,40.3,30.26,SE,126,0.0,0.0,78,0.00,,,0.00,Wunderground v.1.15,2013-01-06 02:55:00,
2013-01-05 22:05:00,46.7,40.5,30.25,SE,126,0.0,0.0,79,0.00,,,0.00,Wunderground v.1.15,2013-01-06 03:05:00,
2013-01-05 22:15:00,46.6,40.4,30.25,SE,126,0.0,0.0,79,0.00,,,0.00,Wunderground v.1.15,2013-01-06 03:15:00,
2013-01-05 22:24:00,46.4,40.6,30.25,SE,126,0.0,0.0,80,0.00,,,0.00,Wunderground v.1.15,2013-01-06 03:24:00,
2013-01-05 22:34:00,46.4,40.6,30.25,SE,126,0.0,0.0,80,0.00,,,0.00,Wunderground v.1.15,2013-01-06 03:34:00,
2013-01-05 22:44:00,46.3,40.5,30.25,SE,126,0.0,0.0,80,0.00,,,0.00,Wunderground v.1.15,2013-01-06 03:44:00,
2013-01-05 22:54:00,46.3,40.5,30.24,SE,126,0.0,0.0,80,0.00,,,0.00,Wunderground v.1.15,2013-01-06 03:54:00,
2013-01-05 23:04:00,46.2,40.4,30.24,SE,126,0.0,0.0,80,0.00,,,0.00,Wunderground v.1.15,2013-01-06 04:04:00,
2013-01-05 23:14:00,46.2,40.0,30.24,SE,126,0.0,0.0,79,0.00,,,0.00,Wunderground v.1.15,2013-01-06 04:14:00,
2013-01-05 23:24:00,46.2,40.0,30.25,SE,126,0.0,0.0,79,0.00,,,0.00,Wunderground v.1.15,2013-01-06 04:24:00,
2013-01-05 23:34:00,46.3,40.1,30.23,SE,126,0.0,0.0,79,0.00,,,0.00,Wunderground v.1.15,2013-01-06 04:34:00,
2013-01-05 23:44:00,46.4,38.9,30.23,SE,128,0.0,0.0,75,0.00,,,0.00,Wunderground v.1.15,2013-01-06 04:44:00,
2013-01-05 23:54:00,46.5,38.3,30.22,SE,144,0.0,0.0,73,0.00,,,0.00,Wunderground v.1.15,2013-01-06 04:54:00,